Time;durP1;ratioP1;P1;durP2;ratioP2;P2;SDS_P1;SDS_P2;PMS_P1;PMS_P2;Temp;Humidity;BMP_temperature;BMP_pressure;BME280_temperature;BME280_humidity;BME280_pressure;Samples;Min_cycle;Max_cycle;Signal;HPM_P1;HPM_P2
2023/10/05 00:06:17;;;;;;;14.90;6.80;;;;;;;7.35;97.74;100154.88;436194;1254;141311;-58
2023/10/05 00:16:23;;;;;;;9.30;6.60;;;;;;;7.32;98.28;100150.12;435855;1251;140716;-59
2023/10/05 00:26:32;;;;;;;7.40;5.60;;;;;;;7.39;99.31;100145.64;436699;1254;138920;-59
2023/10/05 00:36:43;;;;;;;10.10;6.40;;;;;;;7.51;99.91;100138.19;436416;1251;139895;-58
2023/10/05 00:46:50;;;;;;;9.10;7.50;;;;;;;7.66;100.00;100121.89;436709;1255;141035;-59
2023/10/05 00:56:56;;;;;;;9.70;6.40;;;;;;;7.81;100.00;100120.55;436864;1254;139253;-59
2023/10/05 01:07:17;;;;;;;9.60;5.40;;;;;;;7.98;100.00;100129.20;435877;1251;140479;-58
2023/10/05 01:17:25;;;;;;;11.10;5.10;;;;;;;8.09;100.00;100119.30;436247;1256;139364;-58
2023/10/05 01:27:32;;;;;;;11.90;6.40;;;;;;;8.09;100.00;100103.58;435913;1254;139930;-58
2023/10/05 01:37:38;;;;;;;8.00;5.60;;;;;;;8.10;100.00;100089.27;436134;1255;140751;-60
2023/10/05 01:47:45;;;;;;;8.10;5.50;;;;;;;8.19;100.00;100085.88;435936;1251;140023;-59
2023/10/05 01:57:51;;;;;;;10.40;5.50;;;;;;;8.28;100.00;100090.01;436212;1253;140394;-59
2023/10/05 02:07:57;;;;;;;6.20;4.70;;;;;;;8.31;100.00;100095.47;436347;1254;141158;-58
2023/10/05 02:18:13;;;;;;;8.40;6.10;;;;;;;8.22;100.00;100088.35;435667;1255;140258;-57
2023/10/05 02:28:25;;;;;;;15.20;5.90;;;;;;;8.10;100.00;100092.58;435836;1255;139804;-59
2023/10/05 02:38:32;;;;;;;11.40;6.40;;;;;;;8.01;100.00;100088.60;436551;1254;141099;-58
2023/10/05 02:48:41;;;;;;;8.40;5.30;;;;;;;7.91;100.00;100091.35;436237;1254;140834;-58
2023/10/05 02:58:47;;;;;;;7.70;5.50;;;;;;;7.79;100.00;100089.27;435805;1255;140633;-65
2023/10/05 03:08:56;;;;;;;9.20;5.60;;;;;;;7.66;100.00;100082.32;436194;1255;139092;-68
2023/10/05 03:19:03;;;;;;;8.20;6.40;;;;;;;7.55;100.00;100084.56;436046;1254;141176;-68
2023/10/05 03:29:11;;;;;;;11.30;6.20;;;;;;;7.45;100.00;100075.90;435938;1256;142170;-69
2023/10/05 03:39:17;;;;;;;8.20;5.30;;;;;;;7.38;100.00;100066.27;436121;1254;141671;-70
2023/10/05 03:49:23;;;;;;;12.20;5.90;;;;;;;7.33;100.00;100058.69;436060;1254;140932;-73
2023/10/05 03:59:29;;;;;;;10.90;5.20;;;;;;;7.26;100.00;100047.64;435909;1254;139637;-71
2023/10/05 04:09:36;;;;;;;9.40;6.50;;;;;;;7.20;100.00;100040.39;436084;1256;141802;-71
2023/10/05 04:19:42;;;;;;;9.20;5.70;;;;;;;7.10;100.00;100027.23;436770;1254;139233;-70
2023/10/05 04:29:48;;;;;;;8.60;5.50;;;;;;;7.00;100.00;100012.49;436135;1256;139315;-69
2023/10/05 04:39:54;;;;;;;11.00;6.80;;;;;;;6.86;100.00;99989.45;436186;1254;140724;-68
2023/10/05 04:50:00;;;;;;;10.50;6.00;;;;;;;6.79;100.00;99977.02;436549;1255;139254;-68
2023/10/05 05:10:27;;;;;;;8.80;6.60;;;;;;;6.88;100.00;99966.90;435687;1256;140895;-70
2023/10/05 05:20:33;;;;;;;17.30;7.40;;;;;;;7.10;100.00;99965.07;436112;1254;139046;-69
2023/10/05 05:30:40;;;;;;;12.70;7.20;;;;;;;7.64;100.00;99967.41;436168;1254;139187;-70
2023/10/05 05:40:49;;;;;;;20.10;5.50;;;;;;;8.48;100.00;99958.21;436673;1255;139390;-70
2023/10/05 05:50:55;;;;;;;9.80;5.30;;;;;;;10.20;100.00;99953.91;436561;1256;141877;-67
2023/10/05 06:01:01;;;;;;;7.90;5.30;;;;;;;11.80;100.00;99947.68;436674;1255;141434;-68
2023/10/05 06:11:08;;;;;;;9.50;4.70;;;;;;;12.02;97.46;99949.98;436718;1256;140401;-70
2023/10/05 06:21:14;;;;;;;9.30;5.00;;;;;;;11.61;95.94;99962.52;436760;1254;141128;-69
2023/10/05 06:31:20;;;;;;;6.00;4.20;;;;;;;11.72;95.97;99955.55;436382;1254;139031;-68
2023/10/05 06:41:26;;;;;;;6.30;4.00;;;;;;;13.55;96.69;99949.31;436260;1256;139703;-65
2023/10/05 06:51:32;;;;;;;5.90;4.30;;;;;;;16.90;93.11;99948.33;436073;1254;139079;-63
2023/10/05 07:01:38;;;;;;;6.30;3.60;;;;;;;20.23;88.22;99945.52;436318;1256;140111;-75
2023/10/05 07:11:44;;;;;;;4.70;3.50;;;;;;;23.60;80.86;99942.17;436982;1254;138487;-65
2023/10/05 07:21:50;;;;;;;4.70;3.70;;;;;;;25.60;71.14;99922.88;436282;1254;138935;-69
2023/10/05 07:31:56;;;;;;;4.90;3.50;;;;;;;26.54;65.17;99922.46;436487;1256;138523;-69
2023/10/05 07:42:02;;;;;;;6.90;3.50;;;;;;;28.29;62.52;99908.92;436797;1253;138850;-71
2023/10/05 07:52:10;;;;;;;6.70;3.80;;;;;;;30.36;54.56;99909.33;436390;1256;138572;-69
2023/10/05 08:02:18;;;;;;;5.20;2.60;;;;;;;32.14;47.97;99906.31;436854;1256;138549;-69
2023/10/05 08:12:27;;;;;;;5.50;2.80;;;;;;;31.71;43.16;99904.38;436216;1256;138493;-68
2023/10/05 08:22:33;;;;;;;5.80;3.30;;;;;;;26.53;41.56;99909.83;436025;1256;139117;-66
2023/10/05 08:32:40;;;;;;;5.50;3.60;;;;;;;22.06;44.97;99914.38;436003;1255;138680;-69
2023/10/05 08:42:50;;;;;;;5.60;3.10;;;;;;;20.33;49.34;99908.94;436275;1256;139023;-65
2023/10/05 08:52:56;;;;;;;4.80;3.50;;;;;;;21.70;49.87;99902.20;436212;1256;138476;-66
2023/10/05 09:03:05;;;;;;;5.90;3.30;;;;;;;21.15;49.65;99899.20;435927;1256;139449;-66
2023/10/05 09:13:13;;;;;;;5.00;3.00;;;;;;;21.03;49.66;99894.14;436133;1255;138960;-68
2023/10/05 09:23:20;;;;;;;4.70;3.30;;;;;;;20.16;50.08;99887.39;436356;1257;138455;-65
2023/10/05 09:33:27;;;;;;;4.70;2.80;;;;;;;19.43;50.91;99888.47;436021;1257;139478;-67
2023/10/05 09:43:38;;;;;;;3.80;3.00;;;;;;;18.93;51.32;99874.36;436328;1256;138985;-65
2023/10/05 09:53:47;;;;;;;5.00;3.20;;;;;;;18.65;52.20;99865.23;436444;1255;139633;-68
2023/10/05 10:03:56;;;;;;;4.50;2.60;;;;;;;18.40;52.70;99849.11;436693;1251;140093;-67
2023/10/05 10:14:06;;;;;;;8.30;3.40;;;;;;;18.52;53.68;99842.15;436910;1255;138855;-68
2023/10/05 10:24:18;;;;;;;5.80;3.10;;;;;;;18.61;53.49;99860.66;436512;1255;139596;-68
2023/10/05 10:34:49;;;;;;;7.90;3.20;;;;;;;18.37;54.00;99858.75;436619;1256;140796;-69
2023/10/05 10:44:58;;;;;;;7.60;3.40;;;;;;;17.85;54.06;99847.21;436536;1256;138590;-68
2023/10/05 10:55:05;;;;;;;10.10;3.20;;;;;;;17.24;55.19;99842.26;436761;1251;139511;-70
2023/10/05 11:05:15;;;;;;;8.30;3.30;;;;;;;17.40;56.44;99836.30;437035;1255;142302;-69
2023/10/05 11:15:31;;;;;;;6.60;3.90;;;;;;;17.60;55.90;99826.77;436474;1251;139672;-61
2023/10/05 11:25:45;;;;;;;6.00;3.30;;;;;;;17.40;55.86;99813.62;436679;1251;139467;-65
2023/10/05 11:36:21;;;;;;;9.10;3.70;;;;;;;17.35;56.19;99808.59;436154;1256;138493;-63
2023/10/05 11:46:46;;;;;;;4.60;3.30;;;;;;;17.28;56.33;99794.34;436215;1251;139550;-64
2023/10/05 11:56:53;;;;;;;6.10;2.80;;;;;;;17.15;56.64;99792.28;436108;1251;140867;-64
2023/10/05 12:06:59;;;;;;;8.00;3.90;;;;;;;17.22;56.67;99788.16;436285;1257;138966;-64
2023/10/05 12:17:05;;;;;;;5.70;3.10;;;;;;;17.37;56.45;99790.21;435983;1256;139511;-64
2023/10/05 12:27:18;;;;;;;6.60;3.10;;;;;;;17.46;56.20;99788.86;435974;1251;138799;-63
2023/10/05 12:37:25;;;;;;;4.80;2.40;;;;;;;17.46;56.00;99782.14;436642;1256;138581;-65
2023/10/05 12:47:31;;;;;;;9.90;3.30;;;;;;;17.20;56.08;99781.79;436603;1255;138594;-65
2023/10/05 12:57:38;;;;;;;4.30;2.70;;;;;;;17.02;56.25;99771.33;436096;1256;138638;-64
2023/10/05 13:07:44;;;;;;;3.70;2.50;;;;;;;16.98;56.48;99770.46;436316;1251;139236;-65
2023/10/05 13:17:50;;;;;;;6.30;2.60;;;;;;;17.14;56.55;99758.80;436241;1251;140729;-64
2023/10/05 13:27:56;;;;;;;8.60;3.10;;;;;;;17.16;56.45;99762.73;436406;1251;139306;-67
2023/10/05 13:38:07;;;;;;;9.00;4.40;;;;;;;16.88;56.64;99758.54;436576;1256;139067;-72
2023/10/05 13:48:16;;;;;;;8.80;3.80;;;;;;;16.67;57.17;99759.52;436635;1251;138339;-70
2023/10/05 13:58:22;;;;;;;7.50;3.50;;;;;;;16.44;57.32;99754.79;436008;1251;138559;-64
2023/10/05 14:08:28;;;;;;;5.70;3.10;;;;;;;16.18;57.88;99753.23;436187;1251;138667;-64
2023/10/05 14:18:34;;;;;;;7.50;3.40;;;;;;;15.86;58.39;99747.56;436246;1251;138389;-64
2023/10/05 14:28:40;;;;;;;7.00;2.90;;;;;;;15.65;58.94;99752.29;436087;1254;138790;-63
2023/10/05 14:38:47;;;;;;;5.10;3.10;;;;;;;15.56;59.49;99753.36;436542;1256;138901;-64
2023/10/05 14:48:57;;;;;;;5.80;2.90;;;;;;;15.50;59.71;99754.02;436242;1251;139535;-64
2023/10/05 14:59:03;;;;;;;9.00;3.00;;;;;;;15.37;60.12;99753.64;436623;1251;139670;-63
2023/10/05 15:09:09;;;;;;;4.90;2.90;;;;;;;15.25;60.57;99765.59;436591;1251;138690;-64
2023/10/05 15:19:16;;;;;;;5.10;3.20;;;;;;;15.12;61.37;99772.27;436399;1255;139452;-63
2023/10/05 15:29:25;;;;;;;7.30;3.30;;;;;;;14.94;62.18;99782.00;436166;1254;140451;-64
2023/10/05 15:39:35;;;;;;;6.70;2.80;;;;;;;14.70;63.28;99783.66;436210;1251;139689;-64
2023/10/05 15:49:42;;;;;;;7.90;3.10;;;;;;;14.42;65.15;99807.61;436922;1256;138479;-64
2023/10/05 15:59:49;;;;;;;7.10;4.00;;;;;;;14.01;67.56;99827.25;436445;1256;139472;-63
2023/10/05 16:09:55;;;;;;;4.00;3.20;;;;;;;13.63;70.30;99832.48;436430;1251;139217;-63
2023/10/05 16:20:02;;;;;;;5.10;3.60;;;;;;;13.38;72.17;99839.36;436421;1255;140406;-63
2023/10/05 16:30:09;;;;;;;5.60;3.50;;;;;;;13.01;73.85;99848.77;436278;1252;140588;-65
2023/10/05 16:40:18;;;;;;;5.90;3.90;;;;;;;12.69;75.85;99859.27;435982;1251;141014;-62
2023/10/05 16:50:27;;;;;;;6.60;3.60;;;;;;;12.50;77.24;99862.10;436323;1254;140362;-62
2023/10/05 17:00:33;;;;;;;9.10;4.70;;;;;;;12.39;78.54;99860.70;436288;1251;139104;-63
2023/10/05 17:10:39;;;;;;;5.10;3.70;;;;;;;12.32;79.81;99872.38;436138;1251;140266;-62
2023/10/05 17:20:46;;;;;;;5.90;3.60;;;;;;;12.29;80.80;99887.88;436253;1256;140116;-63
2023/10/05 17:30:55;;;;;;;5.40;3.80;;;;;;;12.23;81.71;99897.25;436222;1254;139983;-62
2023/10/05 17:41:02;;;;;;;8.80;4.40;;;;;;;12.16;82.55;99900.65;436721;1256;141847;-63
2023/10/05 17:51:11;;;;;;;6.90;3.70;;;;;;;12.04;83.13;99899.34;436515;1251;139719;-62
2023/10/05 18:01:21;;;;;;;9.40;5.20;;;;;;;11.99;84.35;99908.05;436472;1255;139280;-62
2023/10/05 18:11:29;;;;;;;8.70;4.30;;;;;;;11.96;84.64;99915.29;436792;1251;139291;-63
2023/10/05 18:21:33;;;;;;;;;;;;;;;11.75;85.56;99921.48;436714;1251;140115;-65
2023/10/05 18:31:39;;;;;;;8.70;5.40;;;;;;;11.77;86.77;99926.80;436033;1255;127109;-62
2023/10/05 18:41:46;;;;;;;7.70;4.60;;;;;;;11.78;87.28;99930.59;436542;1254;140231;-63
2023/10/05 18:51:53;;;;;;;8.70;4.40;;;;;;;11.70;87.36;99933.39;436173;1254;139729;-64
2023/10/05 19:01:59;;;;;;;6.50;4.70;;;;;;;11.62;88.35;99946.86;436580;1254;139316;-63
2023/10/05 19:12:09;;;;;;;7.20;4.60;;;;;;;11.67;89.12;99952.16;436148;1251;139886;-64
2023/10/05 19:22:15;;;;;;;7.90;4.80;;;;;;;11.70;89.72;99962.48;435976;1255;174378;-63
2023/10/05 19:32:21;;;;;;;7.60;4.50;;;;;;;11.76;90.12;99970.88;436241;1251;139642;-63
2023/10/05 19:42:29;;;;;;;10.10;5.70;;;;;;;11.78;90.23;99979.52;436087;1254;140520;-64
2023/10/05 19:52:35;;;;;;;8.40;5.60;;;;;;;11.81;90.28;99982.84;435903;1254;140572;-65
2023/10/05 20:02:41;;;;;;;9.00;6.10;;;;;;;11.74;90.22;99990.63;435913;1251;139549;-64
2023/10/05 20:12:48;;;;;;;9.10;6.20;;;;;;;11.72;90.56;100002.90;436542;1251;139629;-69
2023/10/05 20:22:54;;;;;;;10.90;7.00;;;;;;;11.60;90.34;100003.78;436222;1255;139501;-68
2023/10/05 20:33:00;;;;;;;12.40;6.80;;;;;;;11.35;90.67;100014.80;436128;1254;141141;-71
2023/10/05 20:43:06;;;;;;;8.00;6.40;;;;;;;11.09;91.43;100026.30;436208;1251;139602;-69
2023/10/05 20:53:12;;;;;;;7.00;6.20;;;;;;;10.79;92.24;100033.97;437026;1253;141126;-67
2023/10/05 21:03:18;;;;;;;9.20;5.60;;;;;;;10.55;93.53;100036.05;436668;1255;139180;-68
2023/10/05 21:13:24;;;;;;;11.20;7.30;;;;;;;10.29;94.62;100035.38;436682;1255;139707;-67
2023/10/05 21:23:30;;;;;;;8.60;6.90;;;;;;;10.07;95.76;100043.93;436771;1251;140671;-68
2023/10/05 21:33:36;;;;;;;9.10;6.00;;;;;;;9.86;96.52;100047.30;436045;1254;141417;-68
2023/10/05 21:43:44;;;;;;;9.90;7.30;;;;;;;9.66;97.22;100045.89;436179;1252;139768;-68
2023/10/05 21:53:50;;;;;;;11.60;7.70;;;;;;;9.52;98.19;100051.02;436303;1255;139299;-68
2023/10/05 22:03:55;;;;;;;10.80;7.10;;;;;;;9.38;98.98;100052.80;436856;1255;139650;-68
2023/10/05 22:14:02;;;;;;;7.90;6.20;;;;;;;9.21;99.29;100060.95;436140;1254;139288;-70
2023/10/05 22:24:10;;;;;;;9.90;7.90;;;;;;;9.21;99.98;100077.93;436655;1251;139012;-68
2023/10/05 22:34:17;;;;;;;8.80;7.90;;;;;;;9.50;100.00;100082.06;437021;1251;139580;-72
2023/10/05 22:44:22;;;;;;;10.50;9.40;;;;;;;9.67;100.00;100084.81;436053;1255;139326;-72
2023/10/05 22:54:28;;;;;;;10.20;8.60;;;;;;;9.79;100.00;100092.05;435658;1254;141743;-72
2023/10/05 23:04:34;;;;;;;9.60;8.70;;;;;;;9.79;100.00;100104.48;435639;1254;139612;-72
2023/10/05 23:14:41;;;;;;;9.40;8.50;;;;;;;9.67;100.00;100109.35;435809;1254;140974;-72
2023/10/05 23:24:47;;;;;;;11.20;9.20;;;;;;;9.59;100.00;100124.75;435964;1256;139270;-72
2023/10/05 23:34:53;;;;;;;9.60;8.70;;;;;;;9.63;100.00;100139.39;435920;1256;139737;-72
2023/10/05 23:44:59;;;;;;;12.50;9.80;;;;;;;9.51;100.00;100141.23;436303;1254;140359;-73
2023/10/05 23:55:08;;;;;;;8.70;7.90;;;;;;;9.30;100.00;100144.39;436222;1254;140144;-72
